createdAt,value
2018-01-04T00:00:02.890Z,8.00
2018-01-04T00:02:32.858Z,16.40
2018-01-04T00:05:02.158Z,7.65
2018-01-04T00:07:31.276Z,7.35
2018-01-04T00:10:00.426Z,12.00
2018-01-04T00:12:29.685Z,14.60
2018-01-04T00:14:58.813Z,7.05
2018-01-04T00:17:27.940Z,10.73
2018-01-04T00:19:57.160Z,8.35
2018-01-04T00:22:26.282Z,16.40
2018-01-04T00:24:56.228Z,10.95
2018-01-04T00:27:25.573Z,15.23
2018-01-04T00:29:54.726Z,15.68
2018-01-04T00:32:23.921Z,16.55
2018-01-04T00:34:53.111Z,10.35
2018-01-04T00:37:22.243Z,12.27
2018-01-04T00:39:52.278Z,8.85
2018-01-04T00:42:21.456Z,11.85
2018-01-04T00:44:51.048Z,14.85
2018-01-04T00:47:20.256Z,16.30
2018-01-04T00:49:49.467Z,18.15
2018-01-04T00:52:19.353Z,15.38
2018-01-04T00:54:48.473Z,16.35
2018-01-04T00:57:17.632Z,14.55
2018-01-04T00:59:46.721Z,16.87
2018-01-04T01:02:16.623Z,15.38
2018-01-04T01:04:45.758Z,15.32
2018-01-04T01:07:15.623Z,12.80
2018-01-04T01:09:44.713Z,16.48
2018-01-04T01:12:13.833Z,5.50
2018-01-04T01:14:42.946Z,5.32
2018-01-04T01:17:12.061Z,5.32
2018-01-04T01:19:41.385Z,10.13
2018-01-04T01:22:10.522Z,17.58
2018-01-04T01:24:39.615Z,17.80
2018-01-04T01:27:08.750Z,18.12
2018-01-04T01:29:38.604Z,13.48
2018-01-04T01:32:07.706Z,16.52
2018-01-04T01:34:37.386Z,8.45
2018-01-04T01:37:06.512Z,19.60
2018-01-04T01:39:35.601Z,9.32
2018-01-04T01:42:04.795Z,9.23
2018-01-04T01:44:33.903Z,14.43
2018-01-04T01:47:03.002Z,9.60
2018-01-04T01:49:32.924Z,9.75
2018-01-04T01:52:02.794Z,12.18
2018-01-04T01:54:31.891Z,12.07
2018-01-04T01:57:01.035Z,12.48
2018-01-04T01:59:30.270Z,5.45
2018-01-04T02:02:00.197Z,5.80
2018-01-04T02:04:30.002Z,1.67
2018-01-04T02:06:59.102Z,8.82
2018-01-04T02:09:28.258Z,10.88
2018-01-04T02:11:58.482Z,6.05
2018-01-04T02:14:27.594Z,9.65
2018-01-04T02:16:56.790Z,9.27
2018-01-04T02:19:43.994Z,5.45
2018-01-04T02:22:30.904Z,10.00
2018-01-04T02:25:19.595Z,6.78
2018-01-04T02:28:07.820Z,12.55
2018-01-04T02:30:54.907Z,2.10
2018-01-04T02:36:55.120Z,5.18
2018-01-04T02:39:41.980Z,7.22
2018-01-04T02:45:53.244Z,8.80
2018-01-04T02:48:22.492Z,7.40
2018-01-04T02:50:51.605Z,17.23
2018-01-04T02:53:20.710Z,7.72
2018-01-04T02:55:51.003Z,7.65
2018-01-04T02:58:20.074Z,5.00
2018-01-04T03:00:49.169Z,8.23
2018-01-04T03:03:18.304Z,9.43
2018-01-04T03:05:47.423Z,15.93
2018-01-04T03:08:16.513Z,8.85
2018-01-04T03:10:46.399Z,5.03
2018-01-04T03:13:16.266Z,7.93
2018-01-04T03:15:45.387Z,11.27
2018-01-04T03:18:15.333Z,3.72
2018-01-04T03:20:44.429Z,6.03
2018-01-04T03:23:19.251Z,19.50
2018-01-04T03:25:53.814Z,15.10
2018-01-04T03:28:28.600Z,5.22
2018-01-04T03:31:04.080Z,3.37
2018-01-04T03:33:38.741Z,5.37
2018-01-04T03:36:13.351Z,17.83
2018-01-04T03:38:47.870Z,6.00
2018-01-04T03:41:23.192Z,13.30
2018-01-04T03:43:58.763Z,10.50
2018-01-04T03:46:33.360Z,4.90
2018-01-04T03:49:08.030Z,29.90
2018-01-04T03:51:42.668Z,13.65
2018-01-04T03:54:17.233Z,9.25
2018-01-04T03:56:52.598Z,6.07
2018-01-04T03:59:27.399Z,19.92
2018-01-04T04:02:01.924Z,8.32
2018-01-04T04:04:36.977Z,16.40
2018-01-04T04:07:11.691Z,12.18
2018-01-04T04:09:40.832Z,27.55
2018-01-04T04:12:09.925Z,12.13
2018-01-04T04:14:39.018Z,14.82
2018-01-04T04:17:08.154Z,13.13
2018-01-04T04:19:37.288Z,12.63
2018-01-04T04:22:06.393Z,12.90
2018-01-04T04:24:36.258Z,10.02
2018-01-04T04:27:05.373Z,21.58
2018-01-04T04:29:34.463Z,9.10
2018-01-04T04:32:04.450Z,8.98
2018-01-04T04:34:33.556Z,9.18
2018-01-04T04:37:02.656Z,11.52
2018-01-04T04:39:32.523Z,16.55
2018-01-04T04:42:01.625Z,9.57
2018-01-04T04:44:31.537Z,6.15
2018-01-04T04:47:00.714Z,9.27
2018-01-04T04:49:29.834Z,12.20
2018-01-04T04:51:59.069Z,7.70
2018-01-04T04:54:28.584Z,7.87
2018-01-04T04:56:57.720Z,10.35
2018-01-04T04:59:27.639Z,10.57
2018-01-04T05:01:57.005Z,20.48
2018-01-04T05:04:26.217Z,8.75
2018-01-04T05:06:55.389Z,3.60
2018-01-04T05:09:25.413Z,12.23
2018-01-04T05:11:54.610Z,6.18
2018-01-04T05:14:24.523Z,5.45
2018-01-04T05:16:54.252Z,4.30
2018-01-04T05:19:24.423Z,5.75
2018-01-04T05:21:53.590Z,11.20
2018-01-04T05:24:23.559Z,9.27
2018-01-04T05:26:52.694Z,12.95
2018-01-04T05:29:22.682Z,20.10
2018-01-04T05:31:53.093Z,10.18
2018-01-04T05:34:22.240Z,20.92
2018-01-04T05:36:51.598Z,20.73
2018-01-04T05:39:20.824Z,13.98
2018-01-04T05:41:49.954Z,10.45
2018-01-04T05:44:19.062Z,12.75
2018-01-04T05:46:48.595Z,13.40
2018-01-04T05:49:18.510Z,22.08
2018-01-04T05:51:47.642Z,5.85
2018-01-04T05:54:17.571Z,6.07
2018-01-04T05:56:47.553Z,7.80
2018-01-04T05:59:16.668Z,12.00
2018-01-04T06:01:45.967Z,16.05
2018-01-04T06:04:15.118Z,13.27
2018-01-04T06:06:45.004Z,2.67
2018-01-04T06:09:14.160Z,18.08
2018-01-04T06:11:44.090Z,8.38
2018-01-04T06:14:14.936Z,6.72
2018-01-04T06:16:45.277Z,6.30
2018-01-04T06:19:14.364Z,10.52
2018-01-04T06:21:43.442Z,9.45
2018-01-04T06:24:12.589Z,22.42
2018-01-04T06:26:41.704Z,12.75
2018-01-04T06:29:11.636Z,12.70
2018-01-04T06:31:41.579Z,16.50
2018-01-04T06:34:10.661Z,4.50
2018-01-04T06:36:39.767Z,17.25
2018-01-04T06:39:09.687Z,20.45
2018-01-04T06:41:38.821Z,10.27
2018-01-04T06:44:08.710Z,5.07
2018-01-04T06:46:37.906Z,5.65
2018-01-04T06:49:07.010Z,6.87
2018-01-04T06:51:36.160Z,15.05
2018-01-04T06:54:06.175Z,6.57
2018-01-04T06:56:35.304Z,12.75
2018-01-04T06:59:04.418Z,16.40
2018-01-04T07:01:34.817Z,15.13
2018-01-04T07:04:03.967Z,10.73
2018-01-04T07:06:33.899Z,5.05
2018-01-04T07:09:03.060Z,9.95
2018-01-04T07:11:32.191Z,20.10
2018-01-04T07:14:01.401Z,15.50
2018-01-04T07:16:31.120Z,22.85
2018-01-04T07:19:00.225Z,11.65
2018-01-04T07:21:29.373Z,12.65
2018-01-04T07:23:59.286Z,8.65
2018-01-04T07:26:28.433Z,18.73
2018-01-04T07:28:57.658Z,17.17
2018-01-04T07:31:27.043Z,7.95
2018-01-04T07:33:56.261Z,15.55
2018-01-04T07:36:25.405Z,11.25
2018-01-04T07:38:54.672Z,7.32
2018-01-04T07:41:24.560Z,15.88
2018-01-04T07:43:53.859Z,13.02
2018-01-04T07:46:23.962Z,7.43
2018-01-04T07:48:53.074Z,2.75
2018-01-04T07:51:22.252Z,20.23
2018-01-04T07:53:52.187Z,3.70
2018-01-04T07:56:21.314Z,18.15
2018-01-04T07:58:50.426Z,7.75
2018-01-04T08:01:19.780Z,10.57
2018-01-04T08:03:48.915Z,7.53
2018-01-04T08:06:18.019Z,16.60
2018-01-04T08:08:47.666Z,13.30
2018-01-04T08:11:16.788Z,13.48
2018-01-04T08:13:45.915Z,7.53
2018-01-04T08:16:15.042Z,13.10
2018-01-04T08:18:44.138Z,17.27
2018-01-04T08:21:13.301Z,8.40
2018-01-04T08:23:44.248Z,6.25
2018-01-04T08:26:14.211Z,16.35
2018-01-04T08:28:43.327Z,13.07
2018-01-04T08:31:13.960Z,21.45
2018-01-04T08:33:43.053Z,10.70
2018-01-04T08:36:12.174Z,10.98
2018-01-04T08:38:41.683Z,8.27
2018-01-04T08:41:10.779Z,9.25
2018-01-04T08:43:40.638Z,12.23
2018-01-04T08:46:09.779Z,7.00
2018-01-04T08:48:38.878Z,13.57
2018-01-04T08:51:07.986Z,7.03
2018-01-04T08:53:37.919Z,12.43
2018-01-04T08:56:07.012Z,5.80
2018-01-04T08:58:36.098Z,9.88
2018-01-04T09:01:05.250Z,10.05
2018-01-04T09:03:34.405Z,5.65
2018-01-04T09:06:04.285Z,5.85
2018-01-04T09:08:33.535Z,5.95
2018-01-04T09:11:03.391Z,18.55
2018-01-04T09:13:32.491Z,4.35
2018-01-04T09:16:01.630Z,5.37
2018-01-04T09:18:30.742Z,4.45
2018-01-04T09:20:59.834Z,6.00
2018-01-04T09:23:28.979Z,5.25
2018-01-04T09:25:58.260Z,5.03
2018-01-04T09:28:27.487Z,11.32
2018-01-04T09:30:56.713Z,4.20
2018-01-04T09:33:27.516Z,6.07
2018-01-04T09:35:58.812Z,9.15
2018-01-04T09:38:27.978Z,6.55
2018-01-04T09:40:57.275Z,13.43
2018-01-04T09:43:27.966Z,6.28
2018-01-04T09:45:57.100Z,7.30
2018-01-04T09:48:27.014Z,6.90
2018-01-04T09:50:56.698Z,18.17
2018-01-04T09:53:25.964Z,10.43
2018-01-04T09:55:55.119Z,10.52
2018-01-04T09:58:24.403Z,3.33
2018-01-04T10:00:53.595Z,13.15
2018-01-04T10:03:23.602Z,7.82
2018-01-04T10:05:53.385Z,5.35
2018-01-04T10:08:23.300Z,5.75
2018-01-04T10:10:52.454Z,8.82
2018-01-04T10:13:22.156Z,9.77
2018-01-04T10:15:51.326Z,6.15
2018-01-04T10:18:20.424Z,2.05
2018-01-04T10:20:49.675Z,14.07
2018-01-04T10:23:19.533Z,12.77
2018-01-04T10:25:48.771Z,12.18
2018-01-04T10:28:18.195Z,9.77
2018-01-04T10:30:47.377Z,9.45
2018-01-04T10:33:16.966Z,7.05
2018-01-04T10:35:47.675Z,17.85
2018-01-04T10:38:16.783Z,16.75
2018-01-04T10:40:46.001Z,6.03
2018-01-04T10:43:15.157Z,6.45
2018-01-04T10:45:44.339Z,12.48
2018-01-04T10:48:13.651Z,13.35
2018-01-04T10:50:43.674Z,5.93
2018-01-04T10:53:12.820Z,9.30
2018-01-04T10:55:42.047Z,8.50
2018-01-04T10:58:11.220Z,4.37
2018-01-04T11:00:40.398Z,7.32
2018-01-04T11:03:09.589Z,13.10
2018-01-04T11:05:38.863Z,8.82
2018-01-04T11:08:08.761Z,8.85
2018-01-04T11:10:37.930Z,5.95
2018-01-04T11:13:07.481Z,14.63
2018-01-04T11:15:36.569Z,10.25
2018-01-04T11:18:05.674Z,1.70
2018-01-04T11:20:34.853Z,5.25
2018-01-04T11:23:04.804Z,8.93
2018-01-04T11:25:33.944Z,9.38
2018-01-04T11:28:03.494Z,18.05
2018-01-04T11:30:33.745Z,17.02
2018-01-04T11:33:03.372Z,13.05
2018-01-04T11:35:32.962Z,4.60
2018-01-04T11:38:02.929Z,9.20
2018-01-04T11:40:32.160Z,9.73
2018-01-04T11:43:01.342Z,19.12
2018-01-04T11:45:30.457Z,10.05
2018-01-04T11:47:59.696Z,12.50
2018-01-04T11:50:29.248Z,9.68
2018-01-04T11:52:58.411Z,19.85
2018-01-04T11:55:28.353Z,12.88
2018-01-04T11:57:57.585Z,9.93
2018-01-04T12:00:27.107Z,4.53
2018-01-04T12:02:56.449Z,2.90
2018-01-04T12:05:26.458Z,20.23
2018-01-04T12:07:55.582Z,18.27
2018-01-04T12:10:24.973Z,5.95
2018-01-04T12:12:54.340Z,10.85
2018-01-04T12:15:23.779Z,14.95
2018-01-04T12:17:52.970Z,5.05
2018-01-04T12:20:22.335Z,13.98
2018-01-04T12:22:51.577Z,16.35
2018-01-04T12:25:21.473Z,7.15
2018-01-04T12:27:50.614Z,7.70
2018-01-04T12:30:19.762Z,7.45
2018-01-04T12:32:48.882Z,9.82
2018-01-04T12:35:18.133Z,5.53
2018-01-04T12:37:47.230Z,4.45
2018-01-04T12:40:16.427Z,8.43
2018-01-04T12:42:46.374Z,9.52
2018-01-04T12:45:15.461Z,9.85
2018-01-04T12:50:26.613Z,12.32
2018-01-04T12:52:55.861Z,6.43
2018-01-04T12:55:25.951Z,13.75
2018-01-04T12:57:55.484Z,12.68
2018-01-04T13:00:24.661Z,5.97
2018-01-04T13:02:53.821Z,6.37
2018-01-04T13:05:23.110Z,5.57
2018-01-04T13:07:52.293Z,9.73
2018-01-04T13:10:21.448Z,6.25
2018-01-04T13:12:52.954Z,9.52
2018-01-04T13:15:22.173Z,13.60
2018-01-04T13:17:51.364Z,13.50
2018-01-04T13:20:20.631Z,33.17
2018-01-04T13:22:50.489Z,5.47
2018-01-04T13:25:19.763Z,11.52
2018-01-04T13:27:49.471Z,6.35
2018-01-04T13:30:18.733Z,8.63
2018-01-04T13:32:47.853Z,14.55
2018-01-04T13:35:17.129Z,7.03
2018-01-04T13:37:46.349Z,14.85
2018-01-04T13:40:16.274Z,10.13
2018-01-04T13:42:45.993Z,11.68
2018-01-04T13:45:15.135Z,14.77
2018-01-04T13:47:44.518Z,5.32
2018-01-04T13:50:13.677Z,14.30
2018-01-04T13:52:42.778Z,15.15
2018-01-04T13:55:11.929Z,10.43
2018-01-04T13:57:41.098Z,7.45
2018-01-04T14:00:10.219Z,10.80
2018-01-04T14:02:39.416Z,9.00
2018-01-04T14:05:08.647Z,7.62
2018-01-04T14:07:37.762Z,15.00
2018-01-04T14:10:07.674Z,6.00
2018-01-04T14:12:36.839Z,7.18
2018-01-04T14:15:07.450Z,14.18
2018-01-04T14:17:36.703Z,15.68
2018-01-04T14:20:07.423Z,9.85
2018-01-04T14:22:37.340Z,19.37
2018-01-04T14:25:06.756Z,8.35
2018-01-04T14:27:36.082Z,11.93
2018-01-04T14:30:05.338Z,18.80
2018-01-04T14:32:35.249Z,8.88
2018-01-04T14:35:06.214Z,7.68
2018-01-04T14:37:36.105Z,10.50
2018-01-04T14:40:05.294Z,9.98
2018-01-04T14:42:34.531Z,15.48
2018-01-04T14:45:03.657Z,16.85
2018-01-04T14:47:32.798Z,10.73
2018-01-04T14:50:03.510Z,21.27
2018-01-04T14:52:33.340Z,10.40
2018-01-04T14:55:02.481Z,8.77
2018-01-04T14:57:31.993Z,16.27
2018-01-04T15:00:01.875Z,15.45
2018-01-04T15:02:31.098Z,11.88
2018-01-04T15:05:01.276Z,9.75
2018-01-04T15:07:30.513Z,8.80
2018-01-04T15:10:01.350Z,12.43
2018-01-04T15:12:30.511Z,13.50
2018-01-04T15:14:59.730Z,14.27
2018-01-04T15:17:29.696Z,7.53
2018-01-04T15:19:58.900Z,11.02
2018-01-04T15:22:28.062Z,12.68
2018-01-04T15:24:58.257Z,16.87
2018-01-04T15:27:27.526Z,15.27
2018-01-04T15:29:57.541Z,22.50
2018-01-04T15:32:26.741Z,9.70
2018-01-04T15:34:56.502Z,16.70
2018-01-04T15:37:26.436Z,15.07
2018-01-04T15:39:56.382Z,13.77
2018-01-04T15:42:25.574Z,9.90
2018-01-04T15:44:54.762Z,5.72
2018-01-04T15:47:23.898Z,22.73
2018-01-04T15:49:53.596Z,23.40
2018-01-04T15:52:23.750Z,14.85
2018-01-04T15:54:53.665Z,18.42
2018-01-04T15:57:25.642Z,25.58
2018-01-04T15:59:55.674Z,11.23
2018-01-04T16:02:25.622Z,11.98
2018-01-04T16:04:55.055Z,17.58
2018-01-04T16:07:24.264Z,15.10
2018-01-04T16:09:53.416Z,16.20
2018-01-04T16:12:22.713Z,13.52
2018-01-04T16:14:51.867Z,16.20
2018-01-04T16:17:21.840Z,8.68
2018-01-04T16:19:51.076Z,11.60
2018-01-04T16:22:21.030Z,16.83
2018-01-04T16:24:50.978Z,13.32
2018-01-04T16:27:20.999Z,12.93
2018-01-04T16:29:50.120Z,22.73
2018-01-04T16:32:19.220Z,17.30
2018-01-04T16:34:49.196Z,15.43
2018-01-04T16:37:18.937Z,28.17
2018-01-04T16:39:48.066Z,17.00
2018-01-04T16:42:18.782Z,27.08
2018-01-04T16:44:47.920Z,29.52
2018-01-04T16:47:17.805Z,24.08
2018-01-04T16:49:47.899Z,29.48
2018-01-04T16:52:17.153Z,35.92
2018-01-04T16:54:47.262Z,21.85
2018-01-04T16:57:16.413Z,22.65
2018-01-04T16:59:45.505Z,24.95
2018-01-04T17:02:14.971Z,19.52
2018-01-04T17:04:45.056Z,52.67
2018-01-04T17:07:14.845Z,28.98
2018-01-04T17:09:44.043Z,24.02
2018-01-04T17:12:13.215Z,27.05
2018-01-04T17:14:42.336Z,19.52
2018-01-04T17:17:11.441Z,31.37
2018-01-04T17:19:40.702Z,27.73
2018-01-04T17:22:09.864Z,25.75
2018-01-04T17:24:38.982Z,40.97
2018-01-04T17:27:08.995Z,32.17
2018-01-04T17:29:38.243Z,32.60
2018-01-04T17:32:08.665Z,30.77
2018-01-04T17:34:39.547Z,30.42
2018-01-04T17:37:10.227Z,33.05
2018-01-04T17:39:39.689Z,39.38
2018-01-04T17:42:08.935Z,30.75
2018-01-04T17:44:38.104Z,39.53
2018-01-04T17:47:08.277Z,40.60
2018-01-04T17:49:38.551Z,58.33
2018-01-04T17:52:08.527Z,32.90
2018-01-04T17:54:37.841Z,31.92
2018-01-04T17:57:07.846Z,38.10
2018-01-04T17:59:40.913Z,31.10
2018-01-04T18:02:11.711Z,58.33
2018-01-04T18:04:42.075Z,39.70
2018-01-04T18:07:14.140Z,38.65
2018-01-04T18:09:44.218Z,44.35
2018-01-04T18:12:13.371Z,35.45
2018-01-04T18:14:42.755Z,32.15
2018-01-04T18:17:11.903Z,54.85
2018-01-04T18:19:41.109Z,51.17
2018-01-04T18:22:10.282Z,38.67
2018-01-04T18:24:39.441Z,40.92
2018-01-04T18:27:08.564Z,56.90
2018-01-04T18:29:37.713Z,51.10
2018-01-04T18:32:06.855Z,44.03
2018-01-04T18:34:36.784Z,49.28
2018-01-04T18:37:07.625Z,78.05
2018-01-04T18:39:36.733Z,59.72
2018-01-04T18:42:05.838Z,50.22
2018-01-04T18:44:35.014Z,52.10
2018-01-04T18:47:04.142Z,79.95
2018-01-04T18:49:33.301Z,59.28
2018-01-04T18:52:02.461Z,68.68
2018-01-04T18:54:32.363Z,69.72
2018-01-04T18:57:01.528Z,56.28
2018-01-04T18:59:31.117Z,59.25
2018-01-04T19:02:00.397Z,66.07
2018-01-04T19:04:29.604Z,75.47
2018-01-04T19:06:59.466Z,91.95
2018-01-04T19:09:28.618Z,62.17
2018-01-04T19:11:58.611Z,64.60
2018-01-04T19:14:28.100Z,67.80
2018-01-04T19:16:57.471Z,48.10
2018-01-04T19:19:27.010Z,62.72
2018-01-04T19:21:58.307Z,88.82
2018-01-04T19:24:27.757Z,59.53
2018-01-04T19:26:57.024Z,60.47
2018-01-04T19:29:26.489Z,85.07
2018-01-04T19:31:55.955Z,59.88
2018-01-04T19:34:26.786Z,78.32
2018-01-04T19:36:56.256Z,52.00
2018-01-04T19:39:25.469Z,63.92
2018-01-04T19:41:54.650Z,52.22
2018-01-04T19:44:24.343Z,56.58
2018-01-04T19:46:53.555Z,71.57
2018-01-04T19:49:23.486Z,68.93
2018-01-04T19:51:53.556Z,88.65
2018-01-04T19:54:22.796Z,78.10
2018-01-04T19:56:51.981Z,73.40
2018-01-04T19:59:21.171Z,72.18
2018-01-04T20:01:50.294Z,69.78
2018-01-04T20:04:19.427Z,85.22
2018-01-04T20:06:48.625Z,63.17
2018-01-04T20:09:17.749Z,97.15
2018-01-04T20:11:46.935Z,67.65
2018-01-04T20:14:16.115Z,73.95
2018-01-04T20:16:45.463Z,60.75
2018-01-04T20:19:14.731Z,71.50
2018-01-04T20:21:44.081Z,60.70
2018-01-04T20:24:13.244Z,63.45
2018-01-04T20:26:42.464Z,67.87
2018-01-04T20:29:11.974Z,73.55
2018-01-04T20:31:41.162Z,55.97
2018-01-04T20:34:11.192Z,85.78
2018-01-04T20:36:41.803Z,73.70
2018-01-04T20:39:11.694Z,70.57
2018-01-04T20:41:41.929Z,59.15
2018-01-04T20:44:11.081Z,60.95
2018-01-04T20:46:40.191Z,59.72
2018-01-04T20:49:09.321Z,73.03
2018-01-04T20:51:38.878Z,76.53
2018-01-04T20:54:08.003Z,67.95
2018-01-04T20:56:37.137Z,60.30
2018-01-04T20:59:06.309Z,53.67
2018-01-04T21:01:35.415Z,58.50
2018-01-04T21:04:04.751Z,53.75
2018-01-04T21:06:35.154Z,66.62
2018-01-04T21:09:04.440Z,70.00
2018-01-04T21:11:33.568Z,56.33
2018-01-04T21:14:02.965Z,52.97
2018-01-04T21:16:32.267Z,64.15
2018-01-04T21:19:01.690Z,40.45
2018-01-04T21:21:31.149Z,62.50
2018-01-04T21:24:00.496Z,65.85
2018-01-04T21:26:29.741Z,47.75
2018-01-04T21:29:00.221Z,56.40
2018-01-04T21:31:29.525Z,59.65
2018-01-04T21:33:58.738Z,72.90
2018-01-04T21:36:28.383Z,59.08
2018-01-04T21:38:57.703Z,42.42
2018-01-04T21:41:27.050Z,41.45
2018-01-04T21:43:56.351Z,40.60
2018-01-04T21:46:25.514Z,45.28
2018-01-04T21:48:54.714Z,73.45
2018-01-04T21:51:24.046Z,43.65
2018-01-04T21:53:53.376Z,41.05
2018-01-04T21:56:23.260Z,46.88
2018-01-04T21:58:52.691Z,35.92
2018-01-04T22:01:21.969Z,36.17
2018-01-04T22:03:51.687Z,34.75
2018-01-04T22:06:20.884Z,62.13
2018-01-04T22:08:50.055Z,39.63
2018-01-04T22:11:19.989Z,30.95
2018-01-04T22:13:49.216Z,47.83
2018-01-04T22:16:20.084Z,32.40
2018-01-04T22:18:50.062Z,40.17
2018-01-04T22:21:20.248Z,36.00
2018-01-04T22:23:49.400Z,40.78
2018-01-04T22:26:18.528Z,50.47
2018-01-04T22:28:48.261Z,39.83
2018-01-04T22:31:17.361Z,35.58
2018-01-04T22:33:46.542Z,45.70
2018-01-04T22:36:15.721Z,48.22
2018-01-04T22:38:44.907Z,62.47
2018-01-04T22:41:14.951Z,38.08
2018-01-04T22:43:44.906Z,53.67
2018-01-04T22:46:14.069Z,40.35
2018-01-04T22:48:43.200Z,48.83
2018-01-04T22:51:13.320Z,37.08
2018-01-04T22:53:43.210Z,32.60
2018-01-04T22:56:12.380Z,33.35
2018-01-04T22:58:41.588Z,37.92
2018-01-04T23:01:10.677Z,43.63
2018-01-04T23:03:39.856Z,38.53
2018-01-04T23:06:09.127Z,32.60
2018-01-04T23:08:38.240Z,34.22
2018-01-04T23:11:07.369Z,33.38
2018-01-04T23:13:36.517Z,26.98
2018-01-04T23:16:05.644Z,35.20
2018-01-04T23:18:35.597Z,32.97
2018-01-04T23:21:06.401Z,37.70
2018-01-04T23:23:35.510Z,36.22
2018-01-04T23:26:04.653Z,33.50
2018-01-04T23:28:34.566Z,27.37
2018-01-04T23:31:03.708Z,37.00
2018-01-04T23:33:32.859Z,36.13
2018-01-04T23:36:02.797Z,24.65
2018-01-04T23:38:31.936Z,38.83
2018-01-04T23:41:01.047Z,37.30
2018-01-04T23:43:31.160Z,37.65
2018-01-04T23:46:00.322Z,46.33
2018-01-04T23:48:29.687Z,35.10
2018-01-04T23:50:58.949Z,44.15
2018-01-04T23:53:28.249Z,40.53
2018-01-04T23:55:57.538Z,29.95
2018-01-04T23:58:26.824Z,30.85
